createdAt,value
2023-02-09T00:01:30.540Z,0.11
2023-02-09T00:04:02.727Z,0.07
2023-02-09T00:06:30.435Z,0.09
2023-02-09T00:08:58.979Z,0.09
2023-02-09T00:11:49.510Z,0.08
2023-02-09T00:14:21.555Z,0.09
2023-02-09T00:16:50.814Z,0.06
2023-02-09T00:19:19.404Z,0.08
2023-02-09T00:21:47.940Z,0.06
2023-02-09T00:24:16.031Z,0.15
2023-02-09T00:26:43.791Z,0.04
2023-02-09T00:29:12.589Z,0.06
2023-02-09T00:31:40.916Z,0.13
2023-02-09T00:34:08.801Z,0.08
2023-02-09T00:36:36.335Z,0.07
2023-02-09T00:39:04.493Z,0.07
2023-02-09T00:41:51.737Z,0.14
2023-02-09T00:44:19.231Z,0.13
2023-02-09T00:46:46.630Z,0.14
2023-02-09T00:49:14.414Z,0.06
2023-02-09T00:51:41.826Z,-0.01
2023-02-09T00:54:09.610Z,-0.08
2023-02-09T00:56:37.033Z,-0.05
2023-02-09T00:59:04.511Z,-0.03
2023-02-09T01:01:32.047Z,0.02
2023-02-09T01:03:59.646Z,0.15
2023-02-09T01:06:27.266Z,-0.01
2023-02-09T01:08:57.193Z,0.06
2023-02-09T01:11:28.253Z,0.03
2023-02-09T01:13:58.437Z,0.03
2023-02-09T01:16:28.973Z,0.04
2023-02-09T01:18:56.768Z,0.00
2023-02-09T01:21:24.189Z,-0.08
2023-02-09T01:23:51.661Z,-0.03
2023-02-09T01:26:19.758Z,-0.04
2023-02-09T01:28:52.225Z,-0.03
2023-02-09T01:31:31.724Z,-0.02
2023-02-09T01:34:01.124Z,-0.02
2023-02-09T01:36:30.184Z,-0.01
2023-02-09T01:38:59.868Z,0.03
2023-02-09T01:41:27.908Z,-0.07
2023-02-09T01:43:57.257Z,-0.03
2023-02-09T01:46:26.855Z,-0.10
2023-02-09T01:49:18.254Z,-0.14
2023-02-09T01:52:03.495Z,-0.10
2023-02-09T01:54:42.814Z,-0.13
2023-02-09T01:57:17.147Z,-0.11
2023-02-09T01:59:48.076Z,-0.08
2023-02-09T02:02:15.982Z,-0.12
2023-02-09T02:04:45.094Z,-0.14
2023-02-09T02:07:20.731Z,-0.25
2023-02-09T02:09:48.493Z,-0.22
2023-02-09T02:12:16.303Z,-0.30
2023-02-09T02:14:43.760Z,-0.17
2023-02-09T02:17:27.130Z,-0.15
2023-02-09T02:20:19.881Z,-0.24
2023-02-09T02:23:05.436Z,-0.21
2023-02-09T02:25:45.176Z,-0.26
2023-02-09T02:28:24.860Z,-0.30
2023-02-09T02:31:26.299Z,-0.37
2023-02-09T02:34:18.223Z,-0.35
2023-02-09T02:37:13.523Z,-0.50
2023-02-09T02:40:02.526Z,-0.70
2023-02-09T02:42:52.038Z,-0.61
2023-02-09T02:45:51.587Z,-0.65
2023-02-09T02:48:37.645Z,-0.60
2023-02-09T02:51:10.521Z,-0.68
2023-02-09T02:53:41.959Z,-0.95
2023-02-09T02:56:17.507Z,-1.14
2023-02-09T02:58:49.044Z,-1.36
2023-02-09T03:01:22.119Z,-1.50
2023-02-09T03:03:51.496Z,-1.29
2023-02-09T03:06:19.414Z,-1.47
2023-02-09T03:08:57.605Z,-1.28
2023-02-09T03:11:33.587Z,-1.28
2023-02-09T03:14:22.791Z,-1.32
2023-02-09T03:17:20.023Z,-1.59
2023-02-09T03:19:51.766Z,-1.59
2023-02-09T03:22:30.996Z,-1.78
2023-02-09T03:25:14.968Z,-1.76
2023-02-09T03:27:54.035Z,-2.02
2023-02-09T03:30:23.459Z,-2.21
2023-02-09T03:32:56.239Z,-2.34
2023-02-09T03:35:36.021Z,-2.47
2023-02-09T03:38:06.681Z,-2.57
2023-02-09T03:40:35.044Z,-2.57
2023-02-09T03:43:02.454Z,-2.72
2023-02-09T03:45:29.888Z,-2.79
2023-02-09T03:47:57.304Z,-2.90
2023-02-09T03:50:24.841Z,-2.94
2023-02-09T03:52:52.176Z,-2.93
2023-02-09T03:55:19.865Z,-2.94
2023-02-09T03:57:47.340Z,-3.08
2023-02-09T04:00:15.114Z,-3.01
2023-02-09T04:02:43.764Z,-2.97
2023-02-09T04:05:14.105Z,-3.09
2023-02-09T04:07:42.020Z,-3.02
2023-02-09T04:10:11.945Z,-3.03
2023-02-09T04:12:39.427Z,-3.15
2023-02-09T04:15:07.111Z,-3.17
2023-02-09T04:17:34.561Z,-3.14
2023-02-09T04:20:02.155Z,-3.31
2023-02-09T04:22:29.998Z,-3.27
2023-02-09T04:24:57.422Z,-3.35
2023-02-09T04:27:24.918Z,-3.49
2023-02-09T04:29:52.294Z,-3.48
2023-02-09T04:32:21.183Z,-3.50
2023-02-09T04:34:48.778Z,-3.49
2023-02-09T04:37:18.065Z,-3.53
2023-02-09T04:39:45.565Z,-3.56
2023-02-09T04:42:13.033Z,-3.66
2023-02-09T04:44:40.522Z,-3.68
2023-02-09T04:47:08.965Z,-3.70
2023-02-09T04:49:36.619Z,-3.67
2023-02-09T04:52:04.813Z,-3.68
2023-02-09T04:54:32.498Z,-3.56
2023-02-09T04:57:18.705Z,-3.55
2023-02-09T04:59:47.360Z,-3.63
2023-02-09T05:02:14.869Z,-3.56
2023-02-09T05:04:42.349Z,-3.59
2023-02-09T05:07:09.820Z,-3.67
2023-02-09T05:09:37.404Z,-3.70
2023-02-09T05:12:06.751Z,-3.74
2023-02-09T05:14:34.268Z,-3.77
2023-02-09T05:17:02.242Z,-3.81
2023-02-09T05:19:29.796Z,-3.84
2023-02-09T05:21:57.236Z,-3.82
2023-02-09T05:24:24.803Z,-3.85
2023-02-09T05:26:52.220Z,-3.96
2023-02-09T05:29:21.370Z,-4.05
2023-02-09T05:31:49.653Z,-4.04
2023-02-09T05:34:18.153Z,-4.08
2023-02-09T05:36:49.061Z,-4.04
2023-02-09T05:39:17.607Z,-4.07
2023-02-09T05:42:03.511Z,-4.12
2023-02-09T05:44:32.237Z,-4.08
2023-02-09T05:46:59.613Z,-4.15
2023-02-09T05:49:27.748Z,-4.12
2023-02-09T05:51:55.291Z,-4.06
2023-02-09T05:54:22.856Z,-4.07
2023-02-09T05:56:50.537Z,-4.06
2023-02-09T05:59:18.198Z,-4.05
2023-02-09T06:01:46.109Z,-4.08
2023-02-09T06:04:13.515Z,-4.10
2023-02-09T06:06:40.924Z,-4.04
2023-02-09T06:09:08.638Z,-4.08
2023-02-09T06:11:37.920Z,-4.07
2023-02-09T06:14:06.963Z,-4.07
2023-02-09T06:16:34.447Z,-4.12
2023-02-09T06:19:02.784Z,-4.10
2023-02-09T06:21:30.720Z,-4.14
2023-02-09T06:23:58.222Z,-4.17
2023-02-09T06:26:25.750Z,-4.24
2023-02-09T06:28:54.743Z,-4.23
2023-02-09T06:31:22.529Z,-4.22
2023-02-09T06:33:50.236Z,-4.14
2023-02-09T06:36:17.684Z,-4.18
2023-02-09T06:38:45.168Z,-4.12
2023-02-09T06:41:13.022Z,-3.97
2023-02-09T06:43:40.841Z,-4.03
2023-02-09T06:46:11.241Z,-4.01
2023-02-09T06:48:39.644Z,-3.94
2023-02-09T06:51:13.206Z,-3.79
2023-02-09T06:53:42.892Z,-3.79
2023-02-09T06:56:11.457Z,-3.85
2023-02-09T06:58:41.092Z,-3.75
2023-02-09T07:01:12.150Z,-3.69
2023-02-09T07:03:39.745Z,-3.71
2023-02-09T07:06:13.799Z,-3.66
2023-02-09T07:08:41.944Z,-3.55
2023-02-09T07:11:12.097Z,-3.52
2023-02-09T07:13:39.961Z,-3.40
2023-02-09T07:16:11.637Z,-3.30
2023-02-09T07:18:40.291Z,-3.29
2023-02-09T07:21:15.852Z,-3.23
2023-02-09T07:23:44.023Z,-3.14
2023-02-09T07:26:15.386Z,-3.01
2023-02-09T07:28:43.258Z,-2.92
2023-02-09T07:31:13.284Z,-2.86
2023-02-09T07:33:41.030Z,-2.82
2023-02-09T07:36:11.531Z,-2.78
2023-02-09T07:38:40.180Z,-2.61
2023-02-09T07:41:12.807Z,-2.40
2023-02-09T07:43:41.077Z,-2.34
2023-02-09T07:46:09.410Z,-2.20
2023-02-09T07:48:37.838Z,-2.03
2023-02-09T07:51:06.512Z,-1.88
2023-02-09T07:53:34.047Z,-1.93
2023-02-09T07:56:01.743Z,-1.87
2023-02-09T07:58:29.356Z,-1.64
2023-02-09T08:01:04.437Z,-1.42
2023-02-09T08:03:34.410Z,-0.89
2023-02-09T08:06:11.224Z,-0.76
2023-02-09T08:08:39.365Z,-0.58
2023-02-09T08:11:06.931Z,-0.43
2023-02-09T08:13:38.197Z,-0.36
2023-02-09T08:16:10.328Z,-0.25
2023-02-09T08:18:43.046Z,-0.11
2023-02-09T08:21:14.200Z,0.08
2023-02-09T08:23:46.269Z,0.26
2023-02-09T08:26:15.079Z,0.51
2023-02-09T08:28:45.871Z,0.68
2023-02-09T08:31:15.621Z,0.93
2023-02-09T08:33:44.836Z,1.11
2023-02-09T08:36:13.635Z,1.35
2023-02-09T08:38:41.305Z,1.43
2023-02-09T08:41:11.021Z,1.51
2023-02-09T08:43:38.870Z,1.78
2023-02-09T08:46:09.004Z,1.91
2023-02-09T08:48:38.904Z,2.13
2023-02-09T08:51:08.048Z,2.14
2023-02-09T08:53:36.215Z,2.25
2023-02-09T08:56:03.903Z,2.14
2023-02-09T08:58:33.377Z,2.34
2023-02-09T09:01:01.116Z,2.35
2023-02-09T09:03:31.651Z,2.35
2023-02-09T09:06:01.560Z,2.40
2023-02-09T09:08:30.232Z,2.42
2023-02-09T09:10:58.192Z,2.58
2023-02-09T09:13:26.176Z,2.76
2023-02-09T09:15:55.313Z,2.83
2023-02-09T09:18:24.491Z,2.70
2023-02-09T09:20:52.788Z,2.47
2023-02-09T09:23:21.307Z,2.70
2023-02-09T09:25:49.086Z,2.63
2023-02-09T09:28:16.660Z,2.68
2023-02-09T09:30:44.220Z,2.70
2023-02-09T09:33:11.907Z,2.84
2023-02-09T09:35:39.387Z,2.90
2023-02-09T09:38:06.737Z,2.88
2023-02-09T09:40:37.429Z,2.91
2023-02-09T09:43:13.501Z,2.84
2023-02-09T09:45:41.703Z,2.96
2023-02-09T09:48:27.172Z,3.24
2023-02-09T09:50:59.213Z,3.35
2023-02-09T09:53:33.588Z,3.50
2023-02-09T09:56:06.340Z,3.42
2023-02-09T09:58:34.942Z,3.41
2023-02-09T10:01:02.489Z,3.13
2023-02-09T10:03:30.025Z,3.13
2023-02-09T10:06:02.018Z,3.44
2023-02-09T10:08:37.106Z,3.33
2023-02-09T10:11:13.783Z,3.47
2023-02-09T10:13:55.849Z,3.33
2023-02-09T10:16:34.629Z,3.52
2023-02-09T10:19:05.642Z,3.58
2023-02-09T10:21:36.058Z,3.76
2023-02-09T10:24:12.919Z,3.97
2023-02-09T10:26:42.781Z,3.91
2023-02-09T10:29:22.651Z,3.74
2023-02-09T10:31:57.525Z,3.82
2023-02-09T10:34:47.307Z,3.73
2023-02-09T10:37:47.337Z,3.84
2023-02-09T10:40:16.852Z,3.65
2023-02-09T10:43:05.861Z,3.69
2023-02-09T10:45:39.333Z,3.99
2023-02-09T10:48:12.857Z,4.19
2023-02-09T10:51:00.182Z,4.46
2023-02-09T10:53:31.932Z,4.72
2023-02-09T10:56:06.925Z,4.70
2023-02-09T10:58:37.662Z,4.59
2023-02-09T11:01:13.279Z,4.65
2023-02-09T11:04:04.400Z,4.64
2023-02-09T11:06:52.280Z,4.58
2023-02-09T11:09:41.526Z,4.36
2023-02-09T11:12:13.645Z,4.29
2023-02-09T11:14:42.999Z,4.01
2023-02-09T11:17:23.630Z,3.76
2023-02-09T11:20:00.120Z,3.74
2023-02-09T11:22:46.593Z,3.68
2023-02-09T11:25:28.930Z,3.60
2023-02-09T11:28:16.790Z,3.44
2023-02-09T11:30:53.371Z,3.43
2023-02-09T11:33:41.681Z,3.50
2023-02-09T11:36:27.435Z,3.52
2023-02-09T11:39:03.179Z,3.49
2023-02-09T11:41:54.703Z,3.58
2023-02-09T11:44:37.592Z,3.45
2023-02-09T11:47:07.989Z,3.48
2023-02-09T11:49:46.069Z,3.77
2023-02-09T11:52:28.721Z,3.82
2023-02-09T11:55:02.807Z,3.79
2023-02-09T11:57:36.195Z,3.71
2023-02-09T12:00:07.150Z,3.52
2023-02-09T12:03:11.158Z,3.61
2023-02-09T12:05:41.224Z,3.57
2023-02-09T12:08:33.760Z,3.60
2023-02-09T12:11:17.706Z,3.35
2023-02-09T12:14:08.809Z,3.05
2023-02-09T12:16:46.936Z,3.43
2023-02-09T12:19:36.372Z,3.53
2023-02-09T12:22:35.173Z,3.55
2023-02-09T12:25:18.923Z,3.53
2023-02-09T12:28:09.656Z,3.42
2023-02-09T12:30:40.239Z,3.48
2023-02-09T12:33:31.231Z,3.53
2023-02-09T12:36:07.944Z,3.50
2023-02-09T12:39:04.586Z,3.53
2023-02-09T12:41:35.434Z,3.40
2023-02-09T12:44:12.015Z,3.48
2023-02-09T12:46:45.627Z,3.51
2023-02-09T12:49:15.914Z,3.74
2023-02-09T12:51:46.507Z,3.77
2023-02-09T12:54:38.869Z,3.68
2023-02-09T12:57:15.506Z,3.24
2023-02-09T12:59:52.143Z,3.19
2023-02-09T13:02:28.737Z,3.35
2023-02-09T13:05:02.073Z,3.58
2023-02-09T13:07:47.867Z,3.68
2023-02-09T13:10:52.825Z,3.47
2023-02-09T13:13:26.151Z,3.69
2023-02-09T13:16:11.952Z,3.66
2023-02-09T13:18:58.815Z,3.61
2023-02-09T13:22:16.526Z,3.60
2023-02-09T13:25:11.987Z,3.69
2023-02-09T13:27:49.362Z,3.70
2023-02-09T13:30:32.043Z,3.83
2023-02-09T13:33:30.584Z,3.88
2023-02-09T13:36:01.166Z,3.90
2023-02-09T13:38:34.752Z,3.95
2023-02-09T13:41:02.726Z,3.70
2023-02-09T13:43:40.496Z,3.75
2023-02-09T13:46:25.130Z,3.71
2023-02-09T13:48:53.081Z,3.83
2023-02-09T13:51:21.060Z,3.85
2023-02-09T13:54:03.022Z,3.82
2023-02-09T13:56:32.679Z,3.72
2023-02-09T13:59:00.842Z,3.64
2023-02-09T14:01:37.093Z,3.59
2023-02-09T14:04:12.237Z,3.60
2023-02-09T14:07:03.197Z,3.56
2023-02-09T14:10:03.035Z,3.64
2023-02-09T14:12:52.925Z,3.55
2023-02-09T14:15:42.784Z,3.73
2023-02-09T14:18:32.186Z,3.79
2023-02-09T14:21:01.053Z,3.84
2023-02-09T14:23:32.974Z,3.77
2023-02-09T14:26:20.708Z,3.74
2023-02-09T14:29:11.254Z,3.74
2023-02-09T14:31:45.770Z,3.74
2023-02-09T14:34:30.838Z,3.63
2023-02-09T14:37:04.799Z,3.66
2023-02-09T14:39:32.345Z,3.73
2023-02-09T14:42:09.019Z,3.99
2023-02-09T14:44:44.505Z,4.00
2023-02-09T14:47:34.961Z,3.99
2023-02-09T14:50:02.613Z,3.78
2023-02-09T14:52:32.676Z,3.72
2023-02-09T14:55:05.173Z,3.79
2023-02-09T14:57:36.117Z,3.66
2023-02-09T15:00:30.216Z,3.55
2023-02-09T15:03:00.239Z,3.50
2023-02-09T15:05:29.029Z,3.42
2023-02-09T15:08:03.738Z,3.50
2023-02-09T15:10:36.847Z,3.60
2023-02-09T15:13:05.408Z,3.45
2023-02-09T15:15:37.543Z,3.30
2023-02-09T15:18:06.325Z,3.61
2023-02-09T15:20:34.144Z,3.67
2023-02-09T15:23:01.609Z,3.34
2023-02-09T15:25:29.562Z,3.36
2023-02-09T15:27:59.504Z,3.23
2023-02-09T15:30:31.707Z,3.21
2023-02-09T15:32:59.947Z,3.17
2023-02-09T15:35:29.428Z,3.14
2023-02-09T15:37:59.985Z,3.11
2023-02-09T15:40:51.696Z,3.10
2023-02-09T15:43:40.417Z,3.10
2023-02-09T15:46:27.529Z,3.02
2023-02-09T15:48:55.973Z,2.95
2023-02-09T15:51:25.259Z,3.17
2023-02-09T15:53:55.006Z,2.99
2023-02-09T15:56:22.645Z,2.90
2023-02-09T15:58:54.483Z,2.86
2023-02-09T16:01:21.982Z,2.84
2023-02-09T16:03:49.593Z,3.06
2023-02-09T16:06:20.638Z,2.94
2023-02-09T16:08:48.976Z,2.80
2023-02-09T16:11:27.234Z,2.69
2023-02-09T16:13:55.162Z,2.64
2023-02-09T16:16:24.793Z,2.50
2023-02-09T16:18:52.420Z,2.33
2023-02-09T16:21:30.076Z,2.20
2023-02-09T16:24:01.898Z,2.12
2023-02-09T16:26:30.486Z,1.99
2023-02-09T16:28:58.048Z,2.01
2023-02-09T16:31:25.917Z,1.98
2023-02-09T16:33:53.493Z,1.86
2023-02-09T16:36:23.882Z,1.74
2023-02-09T16:38:51.438Z,1.58
2023-02-09T16:41:37.980Z,1.49
2023-02-09T16:44:15.457Z,1.43
2023-02-09T16:46:43.780Z,1.33
2023-02-09T16:49:34.206Z,1.29
2023-02-09T16:52:25.793Z,1.12
2023-02-09T16:54:56.628Z,1.00
2023-02-09T16:57:25.334Z,0.97
2023-02-09T16:59:54.028Z,0.92
2023-02-09T17:02:42.538Z,0.90
2023-02-09T17:05:18.754Z,0.84
2023-02-09T17:07:54.997Z,0.68
2023-02-09T17:10:27.146Z,0.51
2023-02-09T17:12:54.721Z,0.48
2023-02-09T17:15:30.548Z,0.40
2023-02-09T17:18:04.924Z,0.28
2023-02-09T17:20:40.741Z,0.38
2023-02-09T17:23:14.500Z,0.36
2023-02-09T17:25:42.076Z,0.22
2023-02-09T17:28:09.948Z,0.24
2023-02-09T17:30:37.917Z,0.10
2023-02-09T17:33:08.241Z,0.07
2023-02-09T17:36:17.375Z,0.15
2023-02-09T17:38:29.912Z,0.17
2023-02-09T17:41:00.456Z,0.11
2023-02-09T17:43:28.792Z,0.08
2023-02-09T17:45:56.209Z,0.05
2023-02-09T17:48:24.461Z,0.07
2023-02-09T17:50:52.895Z,0.27
2023-02-09T17:53:25.760Z,0.23
2023-02-09T17:55:56.299Z,0.10
2023-02-09T17:58:24.904Z,0.11
2023-02-09T18:00:53.317Z,0.08
2023-02-09T18:03:23.472Z,0.17
2023-02-09T18:05:58.744Z,0.09
2023-02-09T18:08:27.420Z,0.12
2023-02-09T18:10:58.613Z,0.16
2023-02-09T18:13:27.221Z,0.28
2023-02-09T18:15:55.279Z,0.23
2023-02-09T18:18:24.378Z,0.09
2023-02-09T18:20:52.352Z,0.23
2023-02-09T18:23:19.867Z,0.16
2023-02-09T18:25:49.735Z,0.12
2023-02-09T18:28:17.674Z,0.04
2023-02-09T18:30:45.840Z,0.09
2023-02-09T18:33:15.648Z,0.09
2023-02-09T18:35:47.534Z,0.07
2023-02-09T18:38:16.032Z,-0.01
2023-02-09T18:40:43.669Z,-0.04
2023-02-09T18:43:14.767Z,0.22
2023-02-09T18:45:42.447Z,0.40
2023-02-09T18:48:11.007Z,0.30
2023-02-09T18:50:38.548Z,0.27
2023-02-09T18:53:05.988Z,0.15
2023-02-09T18:55:35.220Z,0.02
2023-02-09T18:58:06.063Z,-0.23
2023-02-09T19:00:33.606Z,-0.39
2023-02-09T19:03:01.765Z,-0.39
2023-02-09T19:05:31.267Z,-0.56
2023-02-09T19:07:59.781Z,-0.65
2023-02-09T19:10:29.565Z,-0.70
2023-02-09T19:12:57.155Z,-0.70
2023-02-09T19:15:25.958Z,-0.83
2023-02-09T19:17:56.469Z,-0.75
2023-02-09T19:20:26.776Z,-0.89
2023-02-09T19:22:55.060Z,-0.85
2023-02-09T19:25:24.862Z,-0.83
2023-02-09T19:27:53.119Z,-0.90
2023-02-09T19:30:26.734Z,-0.78
2023-02-09T19:32:57.872Z,-0.87
2023-02-09T19:35:27.167Z,-0.87
2023-02-09T19:37:56.927Z,-0.87
2023-02-09T19:40:36.608Z,-0.84
2023-02-09T19:43:05.193Z,-0.89
2023-02-09T19:45:36.657Z,-0.85
2023-02-09T19:48:07.274Z,-0.89
2023-02-09T19:50:37.023Z,-0.90
2023-02-09T19:53:08.022Z,-0.98
2023-02-09T19:55:36.303Z,-1.07
2023-02-09T19:58:04.802Z,-1.19
2023-02-09T20:00:33.043Z,-1.25
2023-02-09T20:03:00.895Z,-1.32
2023-02-09T20:05:28.900Z,-1.30
2023-02-09T20:07:57.331Z,-1.41
2023-02-09T20:10:25.340Z,-1.54
2023-02-09T20:12:54.456Z,-1.75
2023-02-09T20:15:22.518Z,-1.91
2023-02-09T20:17:50.717Z,-1.93
2023-02-09T20:20:19.530Z,-1.96
2023-02-09T20:22:49.778Z,-2.08
2023-02-09T20:25:18.277Z,-2.06
2023-02-09T20:27:49.929Z,-2.13
2023-02-09T20:30:18.829Z,-2.16
2023-02-09T20:32:46.888Z,-2.18
2023-02-09T20:35:14.901Z,-2.22
2023-02-09T20:37:42.755Z,-2.22
2023-02-09T20:40:12.040Z,-2.39
2023-02-09T20:42:58.424Z,-2.31
2023-02-09T20:45:45.203Z,-2.32
2023-02-09T20:48:13.821Z,-2.33
2023-02-09T20:50:41.411Z,-2.43
2023-02-09T20:53:09.124Z,-2.43
2023-02-09T20:55:37.539Z,-2.36
2023-02-09T20:58:05.363Z,-2.41
2023-02-09T21:00:32.933Z,-2.46
2023-02-09T21:03:00.667Z,-2.51
2023-02-09T21:05:28.611Z,-2.57
2023-02-09T21:07:56.182Z,-2.67
2023-02-09T21:10:23.964Z,-2.61
2023-02-09T21:12:51.477Z,-2.57
2023-02-09T21:15:19.050Z,-2.66
2023-02-09T21:17:49.480Z,-2.73
2023-02-09T21:20:17.573Z,-2.72
2023-02-09T21:22:45.321Z,-2.57
2023-02-09T21:25:13.919Z,-2.43
2023-02-09T21:27:41.322Z,-2.68
2023-02-09T21:30:09.457Z,-2.75
2023-02-09T21:32:38.541Z,-2.77
2023-02-09T21:35:10.371Z,-2.82
2023-02-09T21:37:39.103Z,-2.85
2023-02-09T21:40:07.118Z,-2.89
2023-02-09T21:42:36.847Z,-2.91
2023-02-09T21:45:06.367Z,-2.90
2023-02-09T21:47:38.108Z,-2.92
2023-02-09T21:50:11.322Z,-2.99
2023-02-09T21:52:38.843Z,-2.92
2023-02-09T21:55:08.273Z,-2.94
2023-02-09T21:57:38.306Z,-2.84
2023-02-09T22:00:09.050Z,-2.85
2023-02-09T22:02:36.861Z,-2.93
2023-02-09T22:05:05.838Z,-3.04
2023-02-09T22:07:34.948Z,-3.08
2023-02-09T22:10:03.016Z,-3.16
2023-02-09T22:12:31.408Z,-3.15
2023-02-09T22:14:59.178Z,-3.12
2023-02-09T22:17:26.916Z,-3.07
2023-02-09T22:19:55.031Z,-3.26
2023-02-09T22:22:22.853Z,-3.27
2023-02-09T22:24:50.496Z,-3.18
2023-02-09T22:27:17.949Z,-3.30
2023-02-09T22:29:46.286Z,-3.26
2023-02-09T22:32:13.806Z,-3.25
2023-02-09T22:34:41.727Z,-3.30
2023-02-09T22:37:09.351Z,-3.23
2023-02-09T22:39:37.247Z,-3.19
2023-02-09T22:42:05.167Z,-3.23
2023-02-09T22:44:34.053Z,-3.24
2023-02-09T22:47:02.481Z,-3.30
2023-02-09T22:49:29.980Z,-3.33
2023-02-09T22:51:58.837Z,-3.23
2023-02-09T22:54:26.302Z,-3.29
2023-02-09T22:56:53.798Z,-3.33
2023-02-09T22:59:21.433Z,-3.34
2023-02-09T23:01:49.080Z,-3.44
2023-02-09T23:04:16.706Z,-3.48
2023-02-09T23:06:45.529Z,-3.53
2023-02-09T23:09:14.024Z,-3.55
2023-02-09T23:11:42.308Z,-3.55
2023-02-09T23:14:11.250Z,-3.54
2023-02-09T23:16:40.603Z,-3.54
2023-02-09T23:19:11.140Z,-3.53
2023-02-09T23:21:41.139Z,-3.55
2023-02-09T23:24:10.350Z,-3.65
2023-02-09T23:26:38.717Z,-3.52
2023-02-09T23:29:10.647Z,-3.60
2023-02-09T23:31:38.741Z,-3.59
2023-02-09T23:34:06.223Z,-3.53
2023-02-09T23:36:34.843Z,-3.47
2023-02-09T23:39:08.337Z,-3.56
2023-02-09T23:41:36.056Z,-3.58
2023-02-09T23:44:03.759Z,-3.64
2023-02-09T23:46:31.377Z,-3.74
2023-02-09T23:48:58.898Z,-3.64
2023-02-09T23:51:29.743Z,-3.68
2023-02-09T23:53:59.150Z,-3.67
2023-02-09T23:56:28.315Z,-3.67
2023-02-09T23:58:56.207Z,-3.71
